sensor_id;sensor_type;location;lat;lon;timestamp;temperature;humidity
9466;DHT22;4771;48.726;9.006;2022-11-13T00:01:12;4.80;99.90
9466;DHT22;4771;48.726;9.006;2022-11-13T00:03:40;4.80;99.90
9466;DHT22;4771;48.726;9.006;2022-11-13T00:06:09;4.70;99.90
9466;DHT22;4771;48.726;9.006;2022-11-13T00:08:37;4.80;99.90
9466;DHT22;4771;48.726;9.006;2022-11-13T00:11:06;4.80;99.90
9466;DHT22;4771;48.726;9.006;2022-11-13T00:13:34;4.80;99.90
9466;DHT22;4771;48.726;9.006;2022-11-13T00:16:03;4.70;99.90
9466;DHT22;4771;48.726;9.006;2022-11-13T00:18:32;4.80;99.90
9466;DHT22;4771;48.726;9.006;2022-11-13T00:21:04;4.70;99.90
9466;DHT22;4771;48.726;9.006;2022-11-13T00:23:31;4.70;99.90
9466;DHT22;4771;48.726;9.006;2022-11-13T00:26:04;4.80;99.90
9466;DHT22;4771;48.726;9.006;2022-11-13T00:28:35;4.80;99.90
9466;DHT22;4771;48.726;9.006;2022-11-13T00:31:03;4.80;99.90
9466;DHT22;4771;48.726;9.006;2022-11-13T00:33:31;4.80;99.90
9466;DHT22;4771;48.726;9.006;2022-11-13T00:36:02;4.80;99.90
9466;DHT22;4771;48.726;9.006;2022-11-13T00:38:29;4.70;99.90
9466;DHT22;4771;48.726;9.006;2022-11-13T00:40:57;4.70;99.90
9466;DHT22;4771;48.726;9.006;2022-11-13T00:43:26;4.60;99.90
9466;DHT22;4771;48.726;9.006;2022-11-13T00:45:53;4.60;99.90
9466;DHT22;4771;48.726;9.006;2022-11-13T00:48:21;4.60;99.90
9466;DHT22;4771;48.726;9.006;2022-11-13T00:50:48;4.60;99.90
9466;DHT22;4771;48.726;9.006;2022-11-13T00:53:15;4.60;99.90
9466;DHT22;4771;48.726;9.006;2022-11-13T00:55:43;4.60;99.90
9466;DHT22;4771;48.726;9.006;2022-11-13T00:58:10;4.50;99.90
9466;DHT22;4771;48.726;9.006;2022-11-13T01:00:39;4.40;99.90
9466;DHT22;4771;48.726;9.006;2022-11-13T01:03:07;4.40;99.90
9466;DHT22;4771;48.726;9.006;2022-11-13T01:05:35;4.40;99.90
9466;DHT22;4771;48.726;9.006;2022-11-13T01:08:03;4.40;99.90
9466;DHT22;4771;48.726;9.006;2022-11-13T01:10:31;4.30;99.90
9466;DHT22;4771;48.726;9.006;2022-11-13T01:12:59;4.30;99.90
9466;DHT22;4771;48.726;9.006;2022-11-13T01:15:26;4.30;99.90
9466;DHT22;4771;48.726;9.006;2022-11-13T01:17:54;4.20;99.90
9466;DHT22;4771;48.726;9.006;2022-11-13T01:20:21;4.30;99.90
9466;DHT22;4771;48.726;9.006;2022-11-13T01:22:48;4.30;99.90
9466;DHT22;4771;48.726;9.006;2022-11-13T01:25:15;4.30;99.90
9466;DHT22;4771;48.726;9.006;2022-11-13T01:27:43;4.30;99.90
9466;DHT22;4771;48.726;9.006;2022-11-13T01:30:10;4.30;99.90
9466;DHT22;4771;48.726;9.006;2022-11-13T01:32:37;4.30;99.90
9466;DHT22;4771;48.726;9.006;2022-11-13T01:35:06;4.20;99.90
9466;DHT22;4771;48.726;9.006;2022-11-13T01:37:34;4.20;99.90
9466;DHT22;4771;48.726;9.006;2022-11-13T01:40:01;4.20;99.90
9466;DHT22;4771;48.726;9.006;2022-11-13T01:42:28;4.10;99.90
9466;DHT22;4771;48.726;9.006;2022-11-13T01:44:57;4.10;99.90
9466;DHT22;4771;48.726;9.006;2022-11-13T01:47:25;4.00;99.90
9466;DHT22;4771;48.726;9.006;2022-11-13T01:49:55;4.00;99.90
9466;DHT22;4771;48.726;9.006;2022-11-13T01:52:26;4.00;99.90
9466;DHT22;4771;48.726;9.006;2022-11-13T01:54:56;4.00;99.90
9466;DHT22;4771;48.726;9.006;2022-11-13T01:57:26;4.00;99.90
9466;DHT22;4771;48.726;9.006;2022-11-13T01:59:55;3.90;99.90
9466;DHT22;4771;48.726;9.006;2022-11-13T02:02:25;3.90;99.90
9466;DHT22;4771;48.726;9.006;2022-11-13T02:04:52;3.90;99.90
9466;DHT22;4771;48.726;9.006;2022-11-13T02:07:20;3.90;99.90
9466;DHT22;4771;48.726;9.006;2022-11-13T02:09:50;3.90;99.90
9466;DHT22;4771;48.726;9.006;2022-11-13T02:12:20;3.80;99.90
9466;DHT22;4771;48.726;9.006;2022-11-13T02:14:51;3.90;99.90
9466;DHT22;4771;48.726;9.006;2022-11-13T02:17:22;3.80;99.90
9466;DHT22;4771;48.726;9.006;2022-11-13T02:19:54;3.80;99.90
9466;DHT22;4771;48.726;9.006;2022-11-13T02:22:27;3.70;99.90
9466;DHT22;4771;48.726;9.006;2022-11-13T02:24:59;3.70;99.90
9466;DHT22;4771;48.726;9.006;2022-11-13T02:27:30;3.60;99.90
9466;DHT22;4771;48.726;9.006;2022-11-13T02:29:58;3.60;99.90
9466;DHT22;4771;48.726;9.006;2022-11-13T02:32:25;3.60;99.90
9466;DHT22;4771;48.726;9.006;2022-11-13T02:34:52;3.60;99.90
9466;DHT22;4771;48.726;9.006;2022-11-13T02:37:19;3.60;99.90
9466;DHT22;4771;48.726;9.006;2022-11-13T02:39:46;3.60;99.90
9466;DHT22;4771;48.726;9.006;2022-11-13T02:42:15;3.60;99.90
9466;DHT22;4771;48.726;9.006;2022-11-13T02:44:41;3.60;99.90
9466;DHT22;4771;48.726;9.006;2022-11-13T02:47:09;3.60;99.90
9466;DHT22;4771;48.726;9.006;2022-11-13T02:49:42;3.60;99.90
9466;DHT22;4771;48.726;9.006;2022-11-13T02:52:09;3.40;99.90
9466;DHT22;4771;48.726;9.006;2022-11-13T02:54:36;3.50;99.90
9466;DHT22;4771;48.726;9.006;2022-11-13T02:57:03;3.60;99.90
9466;DHT22;4771;48.726;9.006;2022-11-13T02:59:31;3.50;99.90
9466;DHT22;4771;48.726;9.006;2022-11-13T03:01:59;3.50;99.90
9466;DHT22;4771;48.726;9.006;2022-11-13T03:04:26;3.60;99.90
9466;DHT22;4771;48.726;9.006;2022-11-13T03:06:53;3.60;99.90
9466;DHT22;4771;48.726;9.006;2022-11-13T03:09:20;3.50;99.90
9466;DHT22;4771;48.726;9.006;2022-11-13T03:11:47;3.60;99.90
9466;DHT22;4771;48.726;9.006;2022-11-13T03:14:15;3.50;99.90
9466;DHT22;4771;48.726;9.006;2022-11-13T03:16:43;3.50;99.90
9466;DHT22;4771;48.726;9.006;2022-11-13T03:19:12;3.60;99.90
9466;DHT22;4771;48.726;9.006;2022-11-13T03:21:39;3.60;99.90
9466;DHT22;4771;48.726;9.006;2022-11-13T03:24:07;3.50;99.90
9466;DHT22;4771;48.726;9.006;2022-11-13T03:26:34;3.50;99.90
9466;DHT22;4771;48.726;9.006;2022-11-13T03:29:04;3.50;99.90
9466;DHT22;4771;48.726;9.006;2022-11-13T03:31:31;3.50;99.90
9466;DHT22;4771;48.726;9.006;2022-11-13T03:33:59;3.60;99.90
9466;DHT22;4771;48.726;9.006;2022-11-13T03:36:26;3.60;99.90
9466;DHT22;4771;48.726;9.006;2022-11-13T03:38:53;3.60;99.90
9466;DHT22;4771;48.726;9.006;2022-11-13T03:41:21;3.50;99.90
9466;DHT22;4771;48.726;9.006;2022-11-13T03:43:49;3.40;99.90
9466;DHT22;4771;48.726;9.006;2022-11-13T03:46:16;3.40;99.90
9466;DHT22;4771;48.726;9.006;2022-11-13T03:48:43;3.30;99.90
9466;DHT22;4771;48.726;9.006;2022-11-13T03:51:14;3.30;99.90
9466;DHT22;4771;48.726;9.006;2022-11-13T03:53:41;3.30;99.90
9466;DHT22;4771;48.726;9.006;2022-11-13T03:56:08;3.30;99.90
9466;DHT22;4771;48.726;9.006;2022-11-13T03:58:35;3.20;99.90
9466;DHT22;4771;48.726;9.006;2022-11-13T04:01:02;3.20;99.90
9466;DHT22;4771;48.726;9.006;2022-11-13T04:03:29;3.30;99.90
9466;DHT22;4771;48.726;9.006;2022-11-13T04:05:56;3.20;99.90
9466;DHT22;4771;48.726;9.006;2022-11-13T04:08:25;3.20;99.90
9466;DHT22;4771;48.726;9.006;2022-11-13T04:10:52;3.20;99.90
9466;DHT22;4771;48.726;9.006;2022-11-13T04:13:19;3.20;99.90
9466;DHT22;4771;48.726;9.006;2022-11-13T04:15:47;3.20;99.90
9466;DHT22;4771;48.726;9.006;2022-11-13T04:18:14;3.20;99.90
9466;DHT22;4771;48.726;9.006;2022-11-13T04:20:41;3.20;99.90
9466;DHT22;4771;48.726;9.006;2022-11-13T04:23:08;3.30;99.90
9466;DHT22;4771;48.726;9.006;2022-11-13T04:25:38;3.30;99.90
9466;DHT22;4771;48.726;9.006;2022-11-13T04:28:05;3.20;99.90
9466;DHT22;4771;48.726;9.006;2022-11-13T04:30:32;3.20;99.90
9466;DHT22;4771;48.726;9.006;2022-11-13T04:32:59;3.20;99.90
9466;DHT22;4771;48.726;9.006;2022-11-13T04:35:26;3.20;99.90
9466;DHT22;4771;48.726;9.006;2022-11-13T04:37:53;3.20;99.90
9466;DHT22;4771;48.726;9.006;2022-11-13T04:40:20;3.20;99.90
9466;DHT22;4771;48.726;9.006;2022-11-13T04:42:49;3.20;99.90
9466;DHT22;4771;48.726;9.006;2022-11-13T04:45:16;3.20;99.90
9466;DHT22;4771;48.726;9.006;2022-11-13T04:47:44;3.10;99.90
9466;DHT22;4771;48.726;9.006;2022-11-13T04:50:15;3.00;99.90
9466;DHT22;4771;48.726;9.006;2022-11-13T04:52:42;3.00;99.90
9466;DHT22;4771;48.726;9.006;2022-11-13T04:55:10;3.00;99.90
9466;DHT22;4771;48.726;9.006;2022-11-13T04:57:37;3.00;99.90
9466;DHT22;4771;48.726;9.006;2022-11-13T05:00:08;3.00;99.90
9466;DHT22;4771;48.726;9.006;2022-11-13T05:02:36;2.90;99.90
9466;DHT22;4771;48.726;9.006;2022-11-13T05:05:04;2.90;99.90
9466;DHT22;4771;48.726;9.006;2022-11-13T05:07:35;2.80;99.90
9466;DHT22;4771;48.726;9.006;2022-11-13T05:10:03;2.80;99.90
9466;DHT22;4771;48.726;9.006;2022-11-13T05:12:30;2.80;99.90
9466;DHT22;4771;48.726;9.006;2022-11-13T05:14:57;2.80;99.90
9466;DHT22;4771;48.726;9.006;2022-11-13T05:17:25;2.80;99.90
9466;DHT22;4771;48.726;9.006;2022-11-13T05:19:52;2.70;99.90
9466;DHT22;4771;48.726;9.006;2022-11-13T05:22:19;2.70;99.90
9466;DHT22;4771;48.726;9.006;2022-11-13T05:24:46;2.70;99.90
9466;DHT22;4771;48.726;9.006;2022-11-13T05:27:13;2.80;99.90
9466;DHT22;4771;48.726;9.006;2022-11-13T05:29:40;2.80;99.90
9466;DHT22;4771;48.726;9.006;2022-11-13T05:32:07;2.80;99.90
9466;DHT22;4771;48.726;9.006;2022-11-13T05:34:35;2.80;99.90
9466;DHT22;4771;48.726;9.006;2022-11-13T05:37:02;2.80;99.90
9466;DHT22;4771;48.726;9.006;2022-11-13T05:39:30;2.70;99.90
9466;DHT22;4771;48.726;9.006;2022-11-13T05:41:57;2.70;99.90
9466;DHT22;4771;48.726;9.006;2022-11-13T05:44:24;2.80;99.90
9466;DHT22;4771;48.726;9.006;2022-11-13T05:46:51;2.80;99.90
9466;DHT22;4771;48.726;9.006;2022-11-13T05:49:18;2.80;99.90
9466;DHT22;4771;48.726;9.006;2022-11-13T05:51:47;2.80;99.90
9466;DHT22;4771;48.726;9.006;2022-11-13T05:54:17;2.90;99.90
9466;DHT22;4771;48.726;9.006;2022-11-13T05:56:44;2.70;99.90
9466;DHT22;4771;48.726;9.006;2022-11-13T05:59:12;2.80;99.90
9466;DHT22;4771;48.726;9.006;2022-11-13T06:01:40;2.90;99.90
9466;DHT22;4771;48.726;9.006;2022-11-13T06:04:08;2.80;99.90
9466;DHT22;4771;48.726;9.006;2022-11-13T06:06:35;2.70;99.90
9466;DHT22;4771;48.726;9.006;2022-11-13T06:09:07;2.70;99.90
9466;DHT22;4771;48.726;9.006;2022-11-13T06:11:34;2.60;99.90
9466;DHT22;4771;48.726;9.006;2022-11-13T06:14:01;2.50;99.90
9466;DHT22;4771;48.726;9.006;2022-11-13T06:16:32;2.50;99.90
9466;DHT22;4771;48.726;9.006;2022-11-13T06:19:00;2.40;99.90
9466;DHT22;4771;48.726;9.006;2022-11-13T06:21:29;2.40;99.90
9466;DHT22;4771;48.726;9.006;2022-11-13T06:23:57;2.50;99.90
9466;DHT22;4771;48.726;9.006;2022-11-13T06:26:27;2.50;99.90
9466;DHT22;4771;48.726;9.006;2022-11-13T06:28:54;2.40;99.90
9466;DHT22;4771;48.726;9.006;2022-11-13T06:31:24;2.40;99.90
9466;DHT22;4771;48.726;9.006;2022-11-13T06:33:51;2.50;99.90
9466;DHT22;4771;48.726;9.006;2022-11-13T06:36:20;2.50;99.90
9466;DHT22;4771;48.726;9.006;2022-11-13T06:38:48;2.60;99.90
9466;DHT22;4771;48.726;9.006;2022-11-13T06:41:18;2.60;99.90
9466;DHT22;4771;48.726;9.006;2022-11-13T06:43:47;2.70;99.90
9466;DHT22;4771;48.726;9.006;2022-11-13T06:46:16;2.70;99.90
9466;DHT22;4771;48.726;9.006;2022-11-13T06:48:44;2.80;99.90
9466;DHT22;4771;48.726;9.006;2022-11-13T06:51:14;2.70;99.90
9466;DHT22;4771;48.726;9.006;2022-11-13T06:53:41;2.70;99.90
9466;DHT22;4771;48.726;9.006;2022-11-13T06:56:09;2.70;99.90
9466;DHT22;4771;48.726;9.006;2022-11-13T06:58:36;2.60;99.90
9466;DHT22;4771;48.726;9.006;2022-11-13T07:01:06;2.70;99.90
9466;DHT22;4771;48.726;9.006;2022-11-13T07:03:34;2.80;99.90
9466;DHT22;4771;48.726;9.006;2022-11-13T07:06:02;2.90;99.90
9466;DHT22;4771;48.726;9.006;2022-11-13T07:08:30;3.00;99.90
9466;DHT22;4771;48.726;9.006;2022-11-13T07:10:58;3.00;99.90
9466;DHT22;4771;48.726;9.006;2022-11-13T07:13:28;3.20;99.90
9466;DHT22;4771;48.726;9.006;2022-11-13T07:16:01;3.10;99.90
9466;DHT22;4771;48.726;9.006;2022-11-13T07:18:30;3.10;99.90
9466;DHT22;4771;48.726;9.006;2022-11-13T07:21:01;3.10;99.90
9466;DHT22;4771;48.726;9.006;2022-11-13T07:23:30;3.20;99.90
9466;DHT22;4771;48.726;9.006;2022-11-13T07:25:57;3.20;99.90
9466;DHT22;4771;48.726;9.006;2022-11-13T07:28:24;3.40;99.90
9466;DHT22;4771;48.726;9.006;2022-11-13T07:30:51;3.50;99.90
9466;DHT22;4771;48.726;9.006;2022-11-13T07:33:18;3.50;99.90
9466;DHT22;4771;48.726;9.006;2022-11-13T07:35:46;3.50;99.90
9466;DHT22;4771;48.726;9.006;2022-11-13T07:38:13;3.60;99.90
9466;DHT22;4771;48.726;9.006;2022-11-13T07:40:40;3.70;99.90
9466;DHT22;4771;48.726;9.006;2022-11-13T07:43:07;3.70;99.90
9466;DHT22;4771;48.726;9.006;2022-11-13T07:45:34;3.80;99.90
9466;DHT22;4771;48.726;9.006;2022-11-13T07:48:02;3.90;99.90
9466;DHT22;4771;48.726;9.006;2022-11-13T07:50:34;4.00;99.90
9466;DHT22;4771;48.726;9.006;2022-11-13T07:53:04;4.10;99.90
9466;DHT22;4771;48.726;9.006;2022-11-13T07:55:33;4.20;99.90
9466;DHT22;4771;48.726;9.006;2022-11-13T07:58:01;4.30;99.90
9466;DHT22;4771;48.726;9.006;2022-11-13T08:00:29;4.50;99.90
9466;DHT22;4771;48.726;9.006;2022-11-13T08:02:58;4.60;99.90
9466;DHT22;4771;48.726;9.006;2022-11-13T08:05:29;4.90;99.90
9466;DHT22;4771;48.726;9.006;2022-11-13T08:07:57;5.00;99.90
9466;DHT22;4771;48.726;9.006;2022-11-13T08:10:25;5.20;99.90
9466;DHT22;4771;48.726;9.006;2022-11-13T08:12:58;5.40;99.90
9466;DHT22;4771;48.726;9.006;2022-11-13T08:15:25;5.90;99.90
9466;DHT22;4771;48.726;9.006;2022-11-13T08:17:53;6.30;99.90
9466;DHT22;4771;48.726;9.006;2022-11-13T08:20:20;6.20;99.90
9466;DHT22;4771;48.726;9.006;2022-11-13T08:22:47;6.40;99.90
9466;DHT22;4771;48.726;9.006;2022-11-13T08:25:15;7.80;99.90
9466;DHT22;4771;48.726;9.006;2022-11-13T08:27:44;10.10;99.90
9466;DHT22;4771;48.726;9.006;2022-11-13T08:30:12;12.10;99.90
9466;DHT22;4771;48.726;9.006;2022-11-13T08:32:39;12.30;99.90
9466;DHT22;4771;48.726;9.006;2022-11-13T08:35:07;14.00;99.90
9466;DHT22;4771;48.726;9.006;2022-11-13T08:37:34;15.20;96.40
9466;DHT22;4771;48.726;9.006;2022-11-13T08:40:01;16.30;90.90
9466;DHT22;4771;48.726;9.006;2022-11-13T08:42:28;17.10;80.30
9466;DHT22;4771;48.726;9.006;2022-11-13T08:44:56;17.90;70.20
9466;DHT22;4771;48.726;9.006;2022-11-13T08:47:23;18.20;63.50
9466;DHT22;4771;48.726;9.006;2022-11-13T08:49:53;18.80;58.20
9466;DHT22;4771;48.726;9.006;2022-11-13T08:52:20;19.60;55.60
9466;DHT22;4771;48.726;9.006;2022-11-13T08:54:47;20.20;51.00
9466;DHT22;4771;48.726;9.006;2022-11-13T08:57:14;20.30;49.80
9466;DHT22;4771;48.726;9.006;2022-11-13T08:59:41;20.20;47.50
9466;DHT22;4771;48.726;9.006;2022-11-13T09:02:12;19.70;48.40
9466;DHT22;4771;48.726;9.006;2022-11-13T09:04:40;19.20;48.80
9466;DHT22;4771;48.726;9.006;2022-11-13T09:07:07;19.40;48.80
9466;DHT22;4771;48.726;9.006;2022-11-13T09:09:34;19.80;48.30
9466;DHT22;4771;48.726;9.006;2022-11-13T09:12:01;20.40;46.00
9466;DHT22;4771;48.726;9.006;2022-11-13T09:14:29;20.70;45.10
9466;DHT22;4771;48.726;9.006;2022-11-13T09:16:56;20.30;45.20
9466;DHT22;4771;48.726;9.006;2022-11-13T09:19:24;19.60;45.40
9466;DHT22;4771;48.726;9.006;2022-11-13T09:21:51;18.70;45.60
9466;DHT22;4771;48.726;9.006;2022-11-13T09:24:19;18.60;44.60
9466;DHT22;4771;48.726;9.006;2022-11-13T09:26:46;18.10;45.80
9466;DHT22;4771;48.726;9.006;2022-11-13T09:29:13;18.50;43.90
9466;DHT22;4771;48.726;9.006;2022-11-13T09:31:40;18.80;45.30
9466;DHT22;4771;48.726;9.006;2022-11-13T09:34:08;17.80;41.00
9466;DHT22;4771;48.726;9.006;2022-11-13T09:36:36;16.70;43.00
9466;DHT22;4771;48.726;9.006;2022-11-13T09:39:04;16.50;45.60
9466;DHT22;4771;48.726;9.006;2022-11-13T09:41:36;16.70;45.80
9466;DHT22;4771;48.726;9.006;2022-11-13T09:44:09;16.30;45.20
9466;DHT22;4771;48.726;9.006;2022-11-13T09:46:43;15.30;48.40
9466;DHT22;4771;48.726;9.006;2022-11-13T09:49:15;15.60;48.60
9466;DHT22;4771;48.726;9.006;2022-11-13T09:51:49;15.60;48.20
9466;DHT22;4771;48.726;9.006;2022-11-13T09:54:17;15.90;50.30
9466;DHT22;4771;48.726;9.006;2022-11-13T09:56:50;15.60;48.60
9466;DHT22;4771;48.726;9.006;2022-11-13T09:59:25;15.50;49.30
9466;DHT22;4771;48.726;9.006;2022-11-13T10:02:00;15.20;51.70
9466;DHT22;4771;48.726;9.006;2022-11-13T10:04:52;14.90;51.40
9466;DHT22;4771;48.726;9.006;2022-11-13T10:07:32;14.20;56.00
9466;DHT22;4771;48.726;9.006;2022-11-13T10:10:20;14.30;58.40
9466;DHT22;4771;48.726;9.006;2022-11-13T10:12:52;14.30;57.20
9466;DHT22;4771;48.726;9.006;2022-11-13T10:15:21;15.00;58.70
9466;DHT22;4771;48.726;9.006;2022-11-13T10:17:51;15.00;55.30
9466;DHT22;4771;48.726;9.006;2022-11-13T10:20:22;15.00;55.10
9466;DHT22;4771;48.726;9.006;2022-11-13T10:22:57;14.50;54.60
9466;DHT22;4771;48.726;9.006;2022-11-13T10:25:30;14.80;54.60
9466;DHT22;4771;48.726;9.006;2022-11-13T10:28:00;14.50;57.10
9466;DHT22;4771;48.726;9.006;2022-11-13T10:30:27;15.90;55.00
9466;DHT22;4771;48.726;9.006;2022-11-13T10:33:01;16.40;51.30
9466;DHT22;4771;48.726;9.006;2022-11-13T10:35:43;16.50;51.10
9466;DHT22;4771;48.726;9.006;2022-11-13T10:38:20;16.60;50.40
9466;DHT22;4771;48.726;9.006;2022-11-13T10:40:49;16.90;49.20
9466;DHT22;4771;48.726;9.006;2022-11-13T10:43:18;17.10;48.70
9466;DHT22;4771;48.726;9.006;2022-11-13T10:45:54;17.00;47.40
9466;DHT22;4771;48.726;9.006;2022-11-13T10:48:25;17.20;48.70
9466;DHT22;4771;48.726;9.006;2022-11-13T10:50:56;17.50;45.70
9466;DHT22;4771;48.726;9.006;2022-11-13T10:53:31;18.90;43.60
9466;DHT22;4771;48.726;9.006;2022-11-13T10:55:58;20.90;39.50
9466;DHT22;4771;48.726;9.006;2022-11-13T10:58:26;22.00;35.10
9466;DHT22;4771;48.726;9.006;2022-11-13T11:00:53;22.40;32.00
9466;DHT22;4771;48.726;9.006;2022-11-13T11:03:21;21.80;32.20
9466;DHT22;4771;48.726;9.006;2022-11-13T11:05:57;22.30;31.20
9466;DHT22;4771;48.726;9.006;2022-11-13T11:08:28;23.60;30.00
9466;DHT22;4771;48.726;9.006;2022-11-13T11:10:58;24.70;27.60
9466;DHT22;4771;48.726;9.006;2022-11-13T11:13:43;24.10;25.80
9466;DHT22;4771;48.726;9.006;2022-11-13T11:16:16;25.70;23.60
9466;DHT22;4771;48.726;9.006;2022-11-13T11:18:50;25.60;21.80
9466;DHT22;4771;48.726;9.006;2022-11-13T11:21:21;27.00;22.50
9466;DHT22;4771;48.726;9.006;2022-11-13T11:23:55;29.10;18.30
9466;DHT22;4771;48.726;9.006;2022-11-13T11:26:27;28.90;17.70
9466;DHT22;4771;48.726;9.006;2022-11-13T11:29:02;27.30;17.10
9466;DHT22;4771;48.726;9.006;2022-11-13T11:31:36;26.70;16.60
9466;DHT22;4771;48.726;9.006;2022-11-13T11:34:14;27.00;17.40
9466;DHT22;4771;48.726;9.006;2022-11-13T11:36:48;27.60;16.50
9466;DHT22;4771;48.726;9.006;2022-11-13T11:39:26;28.20;16.00
9466;DHT22;4771;48.726;9.006;2022-11-13T11:41:59;29.70;15.40
9466;DHT22;4771;48.726;9.006;2022-11-13T11:44:34;28.20;14.60
9466;DHT22;4771;48.726;9.006;2022-11-13T11:47:10;28.80;14.40
9466;DHT22;4771;48.726;9.006;2022-11-13T11:49:39;29.20;14.40
9466;DHT22;4771;48.726;9.006;2022-11-13T11:52:34;29.40;13.90
9466;DHT22;4771;48.726;9.006;2022-11-13T11:55:18;28.70;13.90
9466;DHT22;4771;48.726;9.006;2022-11-13T11:57:52;28.60;13.80
9466;DHT22;4771;48.726;9.006;2022-11-13T12:00:23;29.20;13.90
9466;DHT22;4771;48.726;9.006;2022-11-13T12:03:13;29.40;13.20
9466;DHT22;4771;48.726;9.006;2022-11-13T12:05:56;29.00;13.60
9466;DHT22;4771;48.726;9.006;2022-11-13T12:08:32;29.10;12.70
9466;DHT22;4771;48.726;9.006;2022-11-13T12:11:10;29.00;12.50
9466;DHT22;4771;48.726;9.006;2022-11-13T12:13:44;29.10;12.60
9466;DHT22;4771;48.726;9.006;2022-11-13T12:16:21;28.00;13.40
9466;DHT22;4771;48.726;9.006;2022-11-13T12:19:02;24.70;15.20
9466;DHT22;4771;48.726;9.006;2022-11-13T12:21:36;21.30;17.10
9466;DHT22;4771;48.726;9.006;2022-11-13T12:24:36;19.60;19.00
9466;DHT22;4771;48.726;9.006;2022-11-13T12:27:16;18.20;21.40
9466;DHT22;4771;48.726;9.006;2022-11-13T12:29:55;17.00;23.20
9466;DHT22;4771;48.726;9.006;2022-11-13T12:32:52;15.60;25.40
9466;DHT22;4771;48.726;9.006;2022-11-13T12:35:23;14.80;28.20
9466;DHT22;4771;48.726;9.006;2022-11-13T12:37:54;14.30;30.30
9466;DHT22;4771;48.726;9.006;2022-11-13T12:40:27;14.00;33.80
9466;DHT22;4771;48.726;9.006;2022-11-13T12:43:11;13.70;37.90
9466;DHT22;4771;48.726;9.006;2022-11-13T12:45:50;13.60;42.60
9466;DHT22;4771;48.726;9.006;2022-11-13T12:48:26;13.70;45.00
9466;DHT22;4771;48.726;9.006;2022-11-13T12:50:57;13.80;48.20
9466;DHT22;4771;48.726;9.006;2022-11-13T12:53:26;13.80;49.50
9466;DHT22;4771;48.726;9.006;2022-11-13T12:55:55;13.80;51.70
9466;DHT22;4771;48.726;9.006;2022-11-13T12:58:28;13.40;52.60
9466;DHT22;4771;48.726;9.006;2022-11-13T13:00:59;13.20;54.80
9466;DHT22;4771;48.726;9.006;2022-11-13T13:03:43;13.30;55.80
9466;DHT22;4771;48.726;9.006;2022-11-13T13:06:23;13.40;57.80
9466;DHT22;4771;48.726;9.006;2022-11-13T13:09:05;13.00;57.90
9466;DHT22;4771;48.726;9.006;2022-11-13T13:11:41;12.80;60.40
9466;DHT22;4771;48.726;9.006;2022-11-13T13:14:29;12.90;62.90
9466;DHT22;4771;48.726;9.006;2022-11-13T13:17:07;12.80;65.80
9466;DHT22;4771;48.726;9.006;2022-11-13T13:19:42;12.80;66.40
9466;DHT22;4771;48.726;9.006;2022-11-13T13:22:22;12.80;66.80
9466;DHT22;4771;48.726;9.006;2022-11-13T13:24:58;12.50;68.90
9466;DHT22;4771;48.726;9.006;2022-11-13T13:27:27;12.30;74.10
9466;DHT22;4771;48.726;9.006;2022-11-13T13:29:59;12.30;76.20
9466;DHT22;4771;48.726;9.006;2022-11-13T13:32:32;12.30;77.40
9466;DHT22;4771;48.726;9.006;2022-11-13T13:35:07;12.30;77.80
9466;DHT22;4771;48.726;9.006;2022-11-13T13:37:42;12.30;84.20
9466;DHT22;4771;48.726;9.006;2022-11-13T13:40:28;12.20;86.00
9466;DHT22;4771;48.726;9.006;2022-11-13T13:43:35;12.20;84.90
9466;DHT22;4771;48.726;9.006;2022-11-13T13:46:13;12.00;86.30
9466;DHT22;4771;48.726;9.006;2022-11-13T13:48:42;12.00;88.00
9466;DHT22;4771;48.726;9.006;2022-11-13T13:51:19;12.00;89.80
9466;DHT22;4771;48.726;9.006;2022-11-13T13:53:48;12.00;90.00
9466;DHT22;4771;48.726;9.006;2022-11-13T13:56:16;12.10;90.60
9466;DHT22;4771;48.726;9.006;2022-11-13T13:58:43;12.10;91.10
9466;DHT22;4771;48.726;9.006;2022-11-13T14:01:24;12.10;91.80
9466;DHT22;4771;48.726;9.006;2022-11-13T14:04:02;12.00;92.60
9466;DHT22;4771;48.726;9.006;2022-11-13T14:06:30;12.00;93.00
9466;DHT22;4771;48.726;9.006;2022-11-13T14:09:06;12.10;93.80
9466;DHT22;4771;48.726;9.006;2022-11-13T14:11:33;12.10;93.80
9466;DHT22;4771;48.726;9.006;2022-11-13T14:14:06;12.10;96.80
9466;DHT22;4771;48.726;9.006;2022-11-13T14:16:51;12.10;99.50
9466;DHT22;4771;48.726;9.006;2022-11-13T14:19:18;12.00;99.90
9466;DHT22;4771;48.726;9.006;2022-11-13T14:21:47;12.00;99.90
9466;DHT22;4771;48.726;9.006;2022-11-13T14:24:20;11.90;99.90
9466;DHT22;4771;48.726;9.006;2022-11-13T14:26:49;11.70;99.90
9466;DHT22;4771;48.726;9.006;2022-11-13T14:29:32;11.60;99.90
9466;DHT22;4771;48.726;9.006;2022-11-13T14:32:09;11.70;99.90
9466;DHT22;4771;48.726;9.006;2022-11-13T14:34:42;11.70;99.90
9466;DHT22;4771;48.726;9.006;2022-11-13T14:37:25;11.70;99.90
9466;DHT22;4771;48.726;9.006;2022-11-13T14:39:55;11.70;99.90
9466;DHT22;4771;48.726;9.006;2022-11-13T14:42:26;11.60;99.90
9466;DHT22;4771;48.726;9.006;2022-11-13T14:45:19;11.50;99.90
9466;DHT22;4771;48.726;9.006;2022-11-13T14:47:57;11.60;99.90
9466;DHT22;4771;48.726;9.006;2022-11-13T14:50:27;11.50;99.90
9466;DHT22;4771;48.726;9.006;2022-11-13T14:52:56;11.40;99.90
9466;DHT22;4771;48.726;9.006;2022-11-13T14:55:25;11.30;99.90
9466;DHT22;4771;48.726;9.006;2022-11-13T14:57:52;11.30;99.90
9466;DHT22;4771;48.726;9.006;2022-11-13T15:00:29;11.30;99.90
9466;DHT22;4771;48.726;9.006;2022-11-13T15:02:58;11.30;99.90
9466;DHT22;4771;48.726;9.006;2022-11-13T15:05:25;11.30;99.90
9466;DHT22;4771;48.726;9.006;2022-11-13T15:07:53;11.20;99.90
9466;DHT22;4771;48.726;9.006;2022-11-13T15:10:22;11.20;99.90
9466;DHT22;4771;48.726;9.006;2022-11-13T15:12:50;11.10;99.90
9466;DHT22;4771;48.726;9.006;2022-11-13T15:15:19;10.80;99.90
9466;DHT22;4771;48.726;9.006;2022-11-13T15:17:48;10.60;99.90
9466;DHT22;4771;48.726;9.006;2022-11-13T15:20:21;10.70;99.90
9466;DHT22;4771;48.726;9.006;2022-11-13T15:22:49;10.60;99.90
9466;DHT22;4771;48.726;9.006;2022-11-13T15:25:19;10.60;99.90
9466;DHT22;4771;48.726;9.006;2022-11-13T15:27:47;10.60;99.90
9466;DHT22;4771;48.726;9.006;2022-11-13T15:30:17;10.40;99.90
9466;DHT22;4771;48.726;9.006;2022-11-13T15:32:44;10.40;99.90
9466;DHT22;4771;48.726;9.006;2022-11-13T15:35:14;10.30;99.90
9466;DHT22;4771;48.726;9.006;2022-11-13T15:37:43;10.10;99.90
9466;DHT22;4771;48.726;9.006;2022-11-13T15:40:11;10.00;99.90
9466;DHT22;4771;48.726;9.006;2022-11-13T15:42:39;9.90;99.90
9466;DHT22;4771;48.726;9.006;2022-11-13T15:45:12;9.90;99.90
9466;DHT22;4771;48.726;9.006;2022-11-13T15:47:39;9.80;99.90
9466;DHT22;4771;48.726;9.006;2022-11-13T15:50:07;9.80;99.90
9466;DHT22;4771;48.726;9.006;2022-11-13T15:52:37;9.70;99.90
9466;DHT22;4771;48.726;9.006;2022-11-13T15:55:17;9.60;99.90
9466;DHT22;4771;48.726;9.006;2022-11-13T15:57:44;9.50;99.90
9466;DHT22;4771;48.726;9.006;2022-11-13T16:00:13;9.40;99.90
9466;DHT22;4771;48.726;9.006;2022-11-13T16:02:40;9.40;99.90
9466;DHT22;4771;48.726;9.006;2022-11-13T16:05:08;9.30;99.90
9466;DHT22;4771;48.726;9.006;2022-11-13T16:07:35;9.20;99.90
9466;DHT22;4771;48.726;9.006;2022-11-13T16:10:02;9.10;99.90
9466;DHT22;4771;48.726;9.006;2022-11-13T16:12:30;9.00;99.90
9466;DHT22;4771;48.726;9.006;2022-11-13T16:14:57;8.90;99.90
9466;DHT22;4771;48.726;9.006;2022-11-13T16:17:25;8.80;99.90
9466;DHT22;4771;48.726;9.006;2022-11-13T16:19:54;8.80;99.90
9466;DHT22;4771;48.726;9.006;2022-11-13T16:22:24;8.70;99.90
9466;DHT22;4771;48.726;9.006;2022-11-13T16:24:51;8.60;99.90
9466;DHT22;4771;48.726;9.006;2022-11-13T16:27:23;8.60;99.90
9466;DHT22;4771;48.726;9.006;2022-11-13T16:29:53;8.50;99.90
9466;DHT22;4771;48.726;9.006;2022-11-13T16:32:21;8.30;99.90